Pourquoi Pas — FMCY — position and weather

sailwx.info

Track history (hours):
 
Tides and Currents Weather Stations Pressure Air Temp Water Temp Dewpoint Dewpoint Depression Visibility Wind Speed Wind Dir Waves Ship Positions

Oceanographic research ship Pourquoi Pas (France)

Last reported at 2019-Feb-17 07:21 UTC. Time now 2019-Feb-17 16:09 UTC.
Position N 42°52' E 005°48'.

Length 108 m; beam 20 m.

Type: Dredging. MMSI: 228207600.

Date/timePositionNaut miles runAvg speedWind from/ knotsBaromVisibWave heightAir tempDewpointWater temp
2019-Feb-17 07:21N 42°52' E 005°48'0 0.3
2019-Feb-17 07:00N 42°53' E 005°48'2 2.1
2019-Feb-17 06:16N 42°52' E 005°46'0 0.3
2019-Feb-17 04:59N 42°53' E 005°47'0 0.9
2019-Feb-17 04:30N 42°53' E 005°47'1 0.7
2019-Feb-17 03:20N 42°53' E 005°46'2 0.5
2019-Feb-16 23:27N 42°53' E 005°49'0 0.0
2019-Feb-16 22:19N 42°53' E 005°49'37 7.6
2019-Feb-16 17:31N 43°02' E 006°37'011.5
2019-Feb-16 17:30N 43°02' E 006°38'611.9
2019-Feb-16 17:00N 43°05' E 006°45'4 8.8
2019-Feb-16 16:30N 43°07' E 006°50'0 0.7
2019-Feb-16 16:00N 43°06' E 006°50'0 0.1
2019-Feb-16 15:30N 43°06' E 006°50'0 0.0
2019-Feb-16 15:00N 43°06' E 006°50'0 0.0
2019-Feb-16 14:31N 43°06' E 006°50'0 0.0
2019-Feb-16 14:00N 43°06' E 006°50'0 0.0
2019-Feb-16 13:30N 43°06' E 006°50'0 0.0
2019-Feb-16 13:00N 43°06' E 006°50'0 0.0
2019-Feb-16 12:30N 43°06' E 006°50'0 0.0
2019-Feb-16 12:00N 43°06' E 006°50'0 0.0
2019-Feb-16 11:30N 43°06' E 006°50'0 0.1
2019-Feb-16 11:00N 43°06' E 006°50'0 1.0
2019-Feb-16 10:30N 43°07' E 006°50'1 1.2
2019-Feb-16 10:00N 43°06' E 006°50'4 7.4
2019-Feb-16 09:26N 43°07' E 006°44'18 2.7
2019-Feb-16 02:34N 43°02' E 006°20'0 3.2
2019-Feb-16 02:30N 43°02' E 006°20'3 4.9
2019-Feb-16 01:52N 42°59' E 006°21'2 6.3
2019-Feb-16 01:30N 42°57' E 006°24'5 6.8
2019-Feb-16 00:46N 42°55' E 006°29'10 7.6
2019-Feb-15 23:27N 42°50' E 006°41'6 7.3
2019-Feb-15 22:42N 42°47' E 006°48'1 7.4
2019-Feb-15 22:31N 42°46' E 006°49'4 7.4
2019-Feb-15 22:00N 42°44' E 006°54'4 7.5
2019-Feb-15 21:30N 42°42' E 006°58'6 7.4
2019-Feb-15 20:42N 42°39' E 007°05'1 7.4
2019-Feb-15 20:30N 42°38' E 007°07'4 7.3
2019-Feb-15 20:00N 42°36' E 007°11'4 7.5
2019-Feb-15 19:30N 42°34' E 007°15'4 7.5
2019-Feb-15 19:00N 42°32' E 007°20'4 7.5
2019-Feb-15 18:31N 42°30' E 007°24'4 7.3
2019-Feb-15 18:01N 42°29' E 007°28'4 7.1
2019-Feb-15 17:30N 42°27' E 007°32'4 7.0
2019-Feb-15 17:00N 42°25' E 007°36'4 7.1
2019-Feb-15 16:30N 42°23' E 007°40'4 7.1
2019-Feb-15 16:00N 42°21' E 007°45'1 1.7
2019-Feb-15 15:30N 42°21' E 007°45'0 0.6
2019-Feb-15 15:00N 42°20' E 007°46'0 0.1
2019-Feb-15 14:30N 42°20' E 007°46'0 0.1
2019-Feb-15 14:00N 42°20' E 007°45'0 0.7
2019-Feb-15 13:30N 42°21' E 007°45'0 0.6
2019-Feb-15 13:00N 42°20' E 007°45'0 0.1
2019-Feb-15 12:30N 42°20' E 007°45'0 0.2
2019-Feb-15 12:00N 42°20' E 007°45'0 0.7
2019-Feb-15 11:30N 42°21' E 007°46'0 0.2
2019-Feb-15 11:00N 42°21' E 007°46'0 0.2
2019-Feb-15 10:29N 42°21' E 007°46'0 0.6
2019-Feb-15 10:00N 42°20' E 007°45'1 1.3
2019-Feb-15 09:30N 42°21' E 007°46'1 1.2
2019-Feb-15 09:01N 42°21' E 007°45'0 0.7
2019-Feb-15 08:30N 42°21' E 007°45'0 0.8
2019-Feb-15 08:00N 42°21' E 007°45'1 1.4
2019-Feb-15 07:30N 42°21' E 007°46'0 0.2
2019-Feb-15 07:00N 42°21' E 007°46'0 0.8
2019-Feb-15 06:30N 42°20' E 007°46'1 1.8
2019-Feb-15 06:00N 42°20' E 007°47'1 2.4
2019-Feb-15 05:30N 42°19' E 007°48'0 0.4
2019-Feb-15 05:00N 42°19' E 007°48'0 0.3
2019-Feb-15 04:30N 42°19' E 007°48'0 0.4
2019-Feb-15 04:00N 42°19' E 007°48'0 0.4
2019-Feb-15 03:30N 42°19' E 007°48'0 0.3
2019-Feb-15 02:57N 42°20' E 007°48'0 0.3
2019-Feb-15 02:30N 42°20' E 007°48'0 0.4
2019-Feb-15 02:00N 42°20' E 007°47'0 0.4
2019-Feb-15 01:30N 42°20' E 007°47'0 0.5
2019-Feb-15 01:00N 42°20' E 007°47'0 0.5
2019-Feb-15 00:30N 42°20' E 007°46'0 0.4
2019-Feb-15 00:01N 42°20' E 007°46'0 0.5
2019-Feb-14 23:30N 42°20' E 007°46'0 0.5
2019-Feb-14 23:00N 42°20' E 007°46'0 0.6
2019-Feb-14 22:31N 42°20' E 007°45'0 0.6
2019-Feb-14 22:00N 42°20' E 007°45'0 0.6
2019-Feb-14 21:26N 42°20' E 007°44'0 0.6
2019-Feb-14 21:00N 42°20' E 007°44'1 1.0
2019-Feb-14 20:30N 42°21' E 007°45'2 3.1
2019-Feb-14 20:01N 42°21' E 007°47'0 0.7
2019-Feb-14 19:30N 42°21' E 007°46'0 0.6
2019-Feb-14 19:00N 42°21' E 007°46'1 1.7
2019-Feb-14 18:19N 42°22' E 007°45'0 0.7
2019-Feb-14 18:00N 42°22' E 007°45'0 0.4
2019-Feb-14 17:30N 42°22' E 007°45'0 0.3
2019-Feb-14 17:00N 42°22' E 007°45'0 0.4
2019-Feb-14 16:30N 42°22' E 007°45'1 1.1
2019-Feb-14 16:00N 42°21' E 007°46'1 1.0
2019-Feb-14 15:28N 42°21' E 007°45'0 0.2
2019-Feb-14 14:59N 42°21' E 007°46'0 0.8
2019-Feb-14 14:30N 42°20' E 007°45'1 1.0
2019-Feb-14 14:00N 42°21' E 007°45'0 0.1
2019-Feb-14 13:30N 42°21' E 007°45'1 1.3
2019-Feb-14 13:00N 42°20' E 007°45'0 0.1
2019-Feb-14 12:30N 42°20' E 007°45'0 0.3
2019-Feb-14 12:00N 42°20' E 007°45'0 0.1
2019-Feb-14 11:30N 42°20' E 007°45'0 0.0
2019-Feb-14 11:00N 42°20' E 007°45'0 0.5
2019-Feb-14 10:31N 42°20' E 007°46'0 0.5
2019-Feb-14 10:00N 42°21' E 007°46'0 0.5
2019-Feb-14 09:31N 42°21' E 007°46'0 0.6
2019-Feb-14 09:01N 42°21' E 007°46'1 1.2
2019-Feb-14 08:30N 42°21' E 007°45'0 0.6
2019-Feb-14 08:01N 42°20' E 007°45'0 0.7
2019-Feb-14 07:30N 42°20' E 007°45'0 0.7
2019-Feb-14 06:57N 42°21' E 007°45'0 0.5
2019-Feb-14 06:30N 42°21' E 007°45'0 0.6
2019-Feb-14 05:59N 42°21' E 007°45'0 0.3
2019-Feb-14 05:30N 42°21' E 007°45'0 0.4
2019-Feb-14 05:00N 42°21' E 007°45'1 1.9
2019-Feb-14 04:27N 42°21' E 007°44'0 0.1
2019-Feb-14 04:00N 42°21' E 007°44'0 0.1
2019-Feb-14 02:58N 42°21' E 007°44'0 0.1
2019-Feb-14 02:28N 42°21' E 007°44'0 0.1
2019-Feb-14 01:53N 42°21' E 007°44'0 0.2
2019-Feb-14 01:30N 42°21' E 007°44'0 0.2
2019-Feb-14 00:58N 42°21' E 007°44'0 0.2
2019-Feb-14 00:30N 42°21' E 007°44'0 0.3
2019-Feb-14 00:00N 42°21' E 007°44'0 0.3
2019-Feb-13 23:30N 42°21' E 007°44'0 0.3
2019-Feb-13 22:59N 42°21' E 007°44'0 0.3
2019-Feb-13 22:30N 42°21' E 007°44'0 0.5
2019-Feb-13 21:40N 42°20' E 007°45'0 0.4
2019-Feb-13 21:23N 42°20' E 007°45'0 0.4
2019-Feb-13 20:26N 42°20' E 007°45'0 0.2
2019-Feb-13 20:00N 42°20' E 007°45'0 0.3
2019-Feb-13 18:51N 42°20' E 007°46'0 0.2
2019-Feb-13 18:21N 42°20' E 007°46'0 0.1
2019-Feb-13 17:54N 42°20' E 007°46'0 0.1
2019-Feb-13 17:30N 42°20' E 007°46'0 0.1
2019-Feb-13 16:45N 42°20' E 007°46'1 1.8
2019-Feb-13 16:05N 42°21' E 007°45'0 0.2
2019-Feb-13 15:32N 42°21' E 007°45'0 0.3
2019-Feb-13 14:58N 42°21' E 007°45'1 0.1
2019-Feb-13 07:43N 42°22' E 007°45'0 1.0
2019-Feb-13 07:28N 42°21' E 007°45'0 0.1
2019-Feb-13 07:00N 42°21' E 007°45'0 0.1
2019-Feb-13 06:29N 42°21' E 007°45'1 1.0
2019-Feb-13 05:58N 42°21' E 007°45'3 3.9
2019-Feb-13 05:07N 42°23' E 007°42'0 4.1
2019-Feb-13 05:00N 42°24' E 007°42'10 4.4
2019-Feb-13 02:48N 42°31' E 007°33'2 4.7
2019-Feb-13 02:22N 42°32' E 007°31'6 4.7
2019-Feb-13 01:01N 42°37' E 007°25'0 4.6
2019-Feb-13 00:57N 42°37' E 007°25'11 4.5
2019-Feb-12 22:36N 42°45' E 007°16'1 4.8
2019-Feb-12 22:22N 42°46' E 007°15'3 4.6
2019-Feb-12 21:49N 42°48' E 007°12'1 4.6
2019-Feb-12 21:30N 42°49' E 007°11'2 4.6
2019-Feb-12 21:00N 42°51' E 007°09'2 4.7
2019-Feb-12 20:30N 42°53' E 007°07'2 4.7
2019-Feb-12 20:00N 42°54' E 007°05'2 4.8
2019-Feb-12 19:30N 42°56' E 007°03'2 4.7
2019-Feb-12 18:59N 42°58' E 007°00'2 4.7
2019-Feb-12 18:30N 42°60' E 006°58'2 4.9
2019-Feb-12 18:01N 43°01' E 006°56'2 4.8
2019-Feb-12 17:30N 43°03' E 006°54'2 4.8
2019-Feb-12 17:00N 43°05' E 006°51'3 5.2
2019-Feb-12 16:30N 43°07' E 006°49'3 5.4
2019-Feb-12 16:00N 43°09' E 006°47'1 2.2
2019-Feb-12 15:30N 43°09' E 006°48'0 0.6
2019-Feb-12 15:00N 43°10' E 006°48'0 0.3
2019-Feb-12 14:30N 43°10' E 006°48'0 0.1
2019-Feb-12 14:00N 43°10' E 006°48'0 0.2
2019-Feb-12 13:30N 43°10' E 006°48'0 0.2
2019-Feb-12 13:00N 43°10' E 006°48'1 2.2
2019-Feb-12 12:30N 43°09' E 006°47'1 1.4
2019-Feb-12 11:59N 43°10' E 006°48'0 0.3
2019-Feb-12 11:29N 43°10' E 006°48'0 0.7
2019-Feb-12 11:00N 43°10' E 006°48'0 0.9
2019-Feb-12 10:30N 43°09' E 006°49'2 4.1
2019-Feb-12 10:00N 43°10' E 006°46'6 1.6
2019-Feb-12 06:02N 43°06' E 006°38'111.1
2019-Feb-12 05:54N 43°06' E 006°40'411.3
2019-Feb-12 05:30N 43°05' E 006°46'511.1
2019-Feb-12 05:00N 43°05' E 006°54'4 7.7
2019-Feb-12 04:30N 43°04' E 006°59'0 0.2
2019-Feb-12 04:00N 43°05' E 006°59'0 0.3
2019-Feb-12 03:30N 43°04' E 006°59'0 0.0
2019-Feb-12 03:00N 43°04' E 006°59'0 0.1
2019-Feb-12 02:30N 43°05' E 006°59'0 0.0
2019-Feb-12 02:00N 43°05' E 006°59'0 0.0
2019-Feb-12 01:30N 43°05' E 006°59'0 0.0
2019-Feb-12 00:58N 43°05' E 006°59'0 0.1
2019-Feb-12 00:29N 43°04' E 006°59'0 0.1
2019-Feb-12 00:00N 43°04' E 006°59'0 0.1
2019-Feb-11 23:30N 43°04' E 006°59'0 0.0
2019-Feb-11 23:00N 43°04' E 006°59'0 0.1
2019-Feb-11 22:30N 43°04' E 006°59'0 0.2
2019-Feb-11 22:00N 43°05' E 006°59'0 0.1
2019-Feb-11 21:30N 43°04' E 006°59'0 0.2
2019-Feb-11 21:00N 43°04' E 006°59'0 0.0
2019-Feb-11 20:30N 43°04' E 006°59'0 0.0
2019-Feb-11 20:00N 43°04' E 006°59'0 0.0
2019-Feb-11 19:30N 43°04' E 006°59'0 0.1
2019-Feb-11 19:00N 43°04' E 006°59'1 1.2
2019-Feb-11 18:24N 43°04' E 006°59'1 2.7
2019-Feb-11 17:58N 43°05' E 006°59'0 0.6
2019-Feb-11 17:30N 43°05' E 006°59'0 0.4
2019-Feb-11 17:01N 43°05' E 006°60'0 0.3
2019-Feb-11 16:30N 43°05' E 006°59'0 0.4
2019-Feb-11 15:55N 43°04' E 006°59'0 0.3
2019-Feb-11 15:29N 43°05' E 006°59'0 0.1
2019-Feb-11 15:00N 43°05' E 006°59'0 0.1
2019-Feb-11 14:30N 43°05' E 006°59'0 0.3
2019-Feb-11 14:00N 43°04' E 006°59'0 0.4
2019-Feb-11 13:30N 43°04' E 006°60'0 0.4
2019-Feb-11 13:00N 43°04' E 006°59'1 2.9
2019-Feb-11 12:30N 43°05' E 006°58'4 5.9
2019-Feb-11 11:49N 43°08' E 006°53'2 6.1
2019-Feb-11 11:30N 43°09' E 006°51'3 6.3
2019-Feb-11 10:59N 43°11' E 006°48'3 5.9
2019-Feb-11 10:28N 43°13' E 006°44'2 0.9
2019-Feb-11 08:26N 43°14' E 006°42'1 1.4
2019-Feb-11 07:56N 43°13' E 006°43'4 8.2
2019-Feb-11 07:30N 43°11' E 006°47'2 3.5
2019-Feb-11 07:00N 43°10' E 006°49'1 1.1
2019-Feb-11 06:30N 43°10' E 006°48'1 1.3
2019-Feb-11 06:00N 43°09' E 006°47'0 0.1
2019-Feb-11 05:28N 43°09' E 006°47'0 0.7
2019-Feb-11 05:00N 43°09' E 006°48'0 0.7
2019-Feb-11 04:30N 43°10' E 006°48'0 0.6
2019-Feb-11 04:00N 43°09' E 006°47'0 0.7
2019-Feb-11 03:30N 43°10' E 006°48'0 0.7
2019-Feb-11 03:00N 43°10' E 006°48'0 0.7
2019-Feb-11 02:31N 43°09' E 006°48'1 1.3
2019-Feb-11 02:00N 43°10' E 006°48'0 0.3
2019-Feb-11 01:31N 43°10' E 006°48'1 1.2
2019-Feb-11 01:00N 43°10' E 006°48'0 0.7
2019-Feb-11 00:30N 43°10' E 006°48'0 0.5
2019-Feb-11 00:00N 43°10' E 006°48'0 0.7
2019-Feb-10 23:30N 43°10' E 006°48'1 1.1
2019-Feb-10 23:00N 43°10' E 006°48'0 0.4
2019-Feb-10 22:30N 43°10' E 006°48'1 1.0
2019-Feb-10 22:00N 43°10' E 006°49'0 0.3
2019-Feb-10 21:30N 43°11' E 006°49'1 2.2
2019-Feb-10 21:01N 43°10' E 006°48'1 1.8
2019-Feb-10 20:30N 43°10' E 006°49'1 2.7
2019-Feb-10 20:00N 43°11' E 006°51'1 2.5
2019-Feb-10 19:30N 43°12' E 006°52'1 2.3
2019-Feb-10 19:01N 43°13' E 006°52'1 1.6
2019-Feb-10 18:31N 43°13' E 006°53'1 2.5
2019-Feb-10 18:00N 43°12' E 006°52'1 2.4
2019-Feb-10 17:27N 43°11' E 006°51'1 1.9
2019-Feb-10 17:00N 43°11' E 006°50'1 2.0
2019-Feb-10 16:31N 43°10' E 006°49'1 1.7
2019-Feb-10 16:00N 43°10' E 006°48'0 0.0
2019-Feb-10 15:30N 43°10' E 006°48'0 0.2
2019-Feb-10 15:00N 43°10' E 006°48'0 0.0
2019-Feb-10 14:30N 43°10' E 006°48'0 0.2
2019-Feb-10 14:00N 43°10' E 006°48'0 0.2
2019-Feb-10 13:30N 43°10' E 006°48'0 0.7
2019-Feb-10 12:56N 43°10' E 006°49'0 0.6
2019-Feb-10 12:30N 43°10' E 006°49'0 0.5
2019-Feb-10 12:00N 43°10' E 006°49'1 1.2
2019-Feb-10 11:30N 43°09' E 006°48'0 0.3
2019-Feb-10 10:40N 43°09' E 006°48'1 3.2
2019-Feb-10 10:30N 43°10' E 006°48'0 0.8
2019-Feb-10 10:00N 43°09' E 006°48'1 1.0
2019-Feb-10 09:25N 43°10' E 006°48'0 0.1
2019-Feb-10 09:00N 43°10' E 006°48'1 1.0
2019-Feb-10 08:30N 43°10' E 006°48'1 1.6
2019-Feb-10 08:00N 43°10' E 006°49'1 2.9
2019-Feb-10 07:30N 43°09' E 006°47'0 0.4
2019-Feb-10 06:46N 43°09' E 006°47'0 1.3
2019-Feb-10 06:30N 43°09' E 006°47'0 1.0
2019-Feb-10 06:00N 43°09' E 006°48'0 0.5
2019-Feb-10 05:30N 43°09' E 006°48'1 1.3
2019-Feb-10 04:52N 43°10' E 006°47'1 2.0
2019-Feb-10 04:31N 43°09' E 006°47'1 1.3
2019-Feb-10 03:56N 43°10' E 006°48'1 2.6
2019-Feb-10 03:30N 43°09' E 006°48'1 1.6
2019-Feb-10 02:56N 43°10' E 006°48'0 0.4
2019-Feb-10 02:12N 43°10' E 006°48'0 1.2
2019-Feb-10 02:00N 43°10' E 006°49'0 0.5
2019-Feb-10 01:15N 43°10' E 006°49'1 2.8
2019-Feb-10 00:56N 43°09' E 006°49'1 1.4
2019-Feb-10 00:30N 43°09' E 006°48'0 0.3
2019-Feb-10 00:00N 43°09' E 006°48'0 0.3
2019-Feb-09 23:30N 43°09' E 006°48'0 0.4
2019-Feb-09 23:00N 43°10' E 006°48'0 0.2
2019-Feb-09 22:30N 43°10' E 006°48'0 0.4
2019-Feb-09 22:00N 43°10' E 006°48'0 0.4
2019-Feb-09 21:30N 43°10' E 006°48'0 0.9
2019-Feb-09 20:59N 43°10' E 006°48'0 0.9
2019-Feb-09 20:30N 43°10' E 006°48'1 1.7
2019-Feb-09 20:00N 43°10' E 006°49'0 0.9
2019-Feb-09 19:30N 43°10' E 006°49'1 1.0
2019-Feb-09 19:01N 43°10' E 006°49'2 3.8
2019-Feb-09 18:31N 43°09' E 006°47'3 5.6
2019-Feb-09 18:00N 43°09' E 006°43'2 4.2
2019-Feb-09 17:30N 43°09' E 006°40'3 4.3
2019-Feb-09 16:52N 43°08' E 006°37'4 5.4
2019-Feb-09 16:08N 43°06' E 006°31'4 5.2
2019-Feb-09 15:20N 43°05' E 006°26'0 1.1
2019-Feb-09 15:00N 43°05' E 006°27'1 0.2
2019-Feb-09 12:08N 43°05' E 006°27'11 2.6
2019-Feb-09 08:04N 43°09' E 006°41'110.4
2019-Feb-09 07:59N 43°09' E 006°42'510.9
2019-Feb-09 07:31N 43°11' E 006°49'2 4.4
2019-Feb-09 07:00N 43°12' E 006°52'1 1.1
2019-Feb-09 06:30N 43°12' E 006°52'0 0.3
2019-Feb-09 06:00N 43°12' E 006°52'0 0.3
2019-Feb-09 05:30N 43°12' E 006°52'1 3.0
2019-Feb-09 05:00N 43°12' E 006°54'1 2.6
2019-Feb-09 04:30N 43°12' E 006°53'0 0.5
2019-Feb-09 04:00N 43°13' E 006°52'1 2.8
2019-Feb-09 03:30N 43°12' E 006°54'1 2.2
2019-Feb-09 03:00N 43°13' E 006°53'0 1.0
2019-Feb-09 02:30N 43°13' E 006°52'1 2.8
2019-Feb-09 02:01N 43°12' E 006°54'1 1.6
2019-Feb-09 01:30N 43°13' E 006°53'1 1.9
2019-Feb-09 01:00N 43°13' E 006°52'0 0.1
2019-Feb-09 00:30N 43°13' E 006°52'0 0.6
2019-Feb-09 00:00N 43°13' E 006°52'1 2.5
2019-Feb-08 23:31N 43°13' E 006°53'1 1.9
2019-Feb-08 23:00N 43°12' E 006°54'1 2.8
2019-Feb-08 22:30N 43°13' E 006°53'0 0.9
2019-Feb-08 22:00N 43°14' E 006°52'1 2.7
2019-Feb-08 21:30N 43°13' E 006°54'0 0.2
2019-Feb-08 21:01N 43°13' E 006°54'1 2.0
2019-Feb-08 20:30N 43°13' E 006°53'1 2.2
2019-Feb-08 20:00N 43°12' E 006°51'1 3.0
2019-Feb-08 19:30N 43°13' E 006°50'0 0.3
2019-Feb-08 19:00N 43°13' E 006°49'0 0.3
2019-Feb-08 18:12N 43°13' E 006°49'40 1.9
2019-Feb-07 20:25N 43°06' E 005°55'1 2.3
2019-Feb-07 20:00N 43°06' E 005°54'0 0.0
2019-Feb-07 19:30N 43°06' E 005°54'0 0.0
2019-Feb-07 19:00N 43°06' E 005°54'0 0.0
2019-Feb-07 18:30N 43°06' E 005°54'0 0.0
2019-Feb-07 18:01N 43°06' E 005°54'0 0.0
2019-Feb-07 17:30N 43°06' E 005°54'0 0.0
2019-Feb-07 17:00N 43°06' E 005°54'0 0.0
2019-Feb-07 16:30N 43°06' E 005°54'0 0.0
2019-Feb-07 16:00N 43°06' E 005°54'0 0.0
2019-Feb-07 15:30N 43°06' E 005°54'0 0.0
2019-Feb-07 15:00N 43°06' E 005°54'0 0.0
2019-Feb-07 14:30N 43°06' E 005°54'0 0.0
2019-Feb-07 14:00N 43°06' E 005°54'0 0.0
2019-Feb-07 13:30N 43°06' E 005°54'0 0.0
2019-Feb-07 13:00N 43°06' E 005°54'0 0.0
2019-Feb-07 12:30N 43°06' E 005°54'0 0.0
2019-Feb-07 12:00N 43°06' E 005°54'0 0.0
2019-Feb-07 11:30N 43°06' E 005°54'0 0.0
2019-Feb-07 11:01N 43°06' E 005°54'0 0.0
2019-Feb-07 10:30N 43°06' E 005°54'0 0.0
2019-Feb-07 10:00N 43°06' E 005°54'0 0.0
2019-Feb-07 09:30N 43°06' E 005°54'0 0.0
2019-Feb-07 09:01N 43°06' E 005°54'0 0.0
2019-Feb-07 08:30N 43°06' E 005°54'0 0.0
2019-Feb-07 08:00N 43°06' E 005°54'0 0.0
2019-Feb-07 07:31N 43°06' E 005°54'  
Track history (hours):
 
Tides and Currents Weather Stations Pressure Air Temp Water Temp Dewpoint Dewpoint Depression Visibility Wind Speed Wind Dir Waves Ship Positions

Oceanographic research ship Pourquoi Pas (France)

Last reported at 2019-Feb-17 07:21 UTC. Time now 2019-Feb-17 16:09 UTC.
Position N 42°52' E 005°48'.

Length 108 m; beam 20 m.

Type: Dredging. MMSI: 228207600.

Date/timePositionNaut miles runAvg speedWind from/ knotsBaromVisibWave heightAir tempDewpointWater temp
2019-Feb-17 07:21N 42°52' E 005°48'0 0.3
2019-Feb-17 07:00N 42°53' E 005°48'2 2.1
2019-Feb-17 06:16N 42°52' E 005°46'0 0.3
2019-Feb-17 04:59N 42°53' E 005°47'0 0.9
2019-Feb-17 04:30N 42°53' E 005°47'1 0.7
2019-Feb-17 03:20N 42°53' E 005°46'2 0.5
2019-Feb-16 23:27N 42°53' E 005°49'0 0.0
2019-Feb-16 22:19N 42°53' E 005°49'37 7.6
2019-Feb-16 17:31N 43°02' E 006°37'011.5
2019-Feb-16 17:30N 43°02' E 006°38'611.9
2019-Feb-16 17:00N 43°05' E 006°45'4 8.8
2019-Feb-16 16:30N 43°07' E 006°50'0 0.7
2019-Feb-16 16:00N 43°06' E 006°50'0 0.1
2019-Feb-16 15:30N 43°06' E 006°50'0 0.0
2019-Feb-16 15:00N 43°06' E 006°50'0 0.0
2019-Feb-16 14:31N 43°06' E 006°50'0 0.0
2019-Feb-16 14:00N 43°06' E 006°50'0 0.0
2019-Feb-16 13:30N 43°06' E 006°50'0 0.0
2019-Feb-16 13:00N 43°06' E 006°50'0 0.0
2019-Feb-16 12:30N 43°06' E 006°50'0 0.0
2019-Feb-16 12:00N 43°06' E 006°50'0 0.0
2019-Feb-16 11:30N 43°06' E 006°50'0 0.1
2019-Feb-16 11:00N 43°06' E 006°50'0 1.0
2019-Feb-16 10:30N 43°07' E 006°50'1 1.2
2019-Feb-16 10:00N 43°06' E 006°50'4 7.4
2019-Feb-16 09:26N 43°07' E 006°44'18 2.7
2019-Feb-16 02:34N 43°02' E 006°20'0 3.2
2019-Feb-16 02:30N 43°02' E 006°20'3 4.9
2019-Feb-16 01:52N 42°59' E 006°21'2 6.3
2019-Feb-16 01:30N 42°57' E 006°24'5 6.8
2019-Feb-16 00:46N 42°55' E 006°29'10 7.6
2019-Feb-15 23:27N 42°50' E 006°41'6 7.3
2019-Feb-15 22:42N 42°47' E 006°48'1 7.4
2019-Feb-15 22:31N 42°46' E 006°49'4 7.4
2019-Feb-15 22:00N 42°44' E 006°54'4 7.5
2019-Feb-15 21:30N 42°42' E 006°58'6 7.4
2019-Feb-15 20:42N 42°39' E 007°05'1 7.4
2019-Feb-15 20:30N 42°38' E 007°07'4 7.3
2019-Feb-15 20:00N 42°36' E 007°11'4 7.5
2019-Feb-15 19:30N 42°34' E 007°15'4 7.5
2019-Feb-15 19:00N 42°32' E 007°20'4 7.5
2019-Feb-15 18:31N 42°30' E 007°24'4 7.3
2019-Feb-15 18:01N 42°29' E 007°28'4 7.1
2019-Feb-15 17:30N 42°27' E 007°32'4 7.0
2019-Feb-15 17:00N 42°25' E 007°36'4 7.1
2019-Feb-15 16:30N 42°23' E 007°40'4 7.1
2019-Feb-15 16:00N 42°21' E 007°45'1 1.7
2019-Feb-15 15:30N 42°21' E 007°45'0 0.6
2019-Feb-15 15:00N 42°20' E 007°46'0 0.1
2019-Feb-15 14:30N 42°20' E 007°46'0 0.1
2019-Feb-15 14:00N 42°20' E 007°45'0 0.7
2019-Feb-15 13:30N 42°21' E 007°45'0 0.6
2019-Feb-15 13:00N 42°20' E 007°45'0 0.1
2019-Feb-15 12:30N 42°20' E 007°45'0 0.2
2019-Feb-15 12:00N 42°20' E 007°45'0 0.7
2019-Feb-15 11:30N 42°21' E 007°46'0 0.2
2019-Feb-15 11:00N 42°21' E 007°46'0 0.2
2019-Feb-15 10:29N 42°21' E 007°46'0 0.6
2019-Feb-15 10:00N 42°20' E 007°45'1 1.3
2019-Feb-15 09:30N 42°21' E 007°46'1 1.2
2019-Feb-15 09:01N 42°21' E 007°45'0 0.7
2019-Feb-15 08:30N 42°21' E 007°45'0 0.8
2019-Feb-15 08:00N 42°21' E 007°45'1 1.4
2019-Feb-15 07:30N 42°21' E 007°46'0 0.2
2019-Feb-15 07:00N 42°21' E 007°46'0 0.8
2019-Feb-15 06:30N 42°20' E 007°46'1 1.8
2019-Feb-15 06:00N 42°20' E 007°47'1 2.4
2019-Feb-15 05:30N 42°19' E 007°48'0 0.4
2019-Feb-15 05:00N 42°19' E 007°48'0 0.3
2019-Feb-15 04:30N 42°19' E 007°48'0 0.4
2019-Feb-15 04:00N 42°19' E 007°48'0 0.4
2019-Feb-15 03:30N 42°19' E 007°48'0 0.3
2019-Feb-15 02:57N 42°20' E 007°48'0 0.3
2019-Feb-15 02:30N 42°20' E 007°48'0 0.4
2019-Feb-15 02:00N 42°20' E 007°47'0 0.4
2019-Feb-15 01:30N 42°20' E 007°47'0 0.5
2019-Feb-15 01:00N 42°20' E 007°47'0 0.5
2019-Feb-15 00:30N 42°20' E 007°46'0 0.4
2019-Feb-15 00:01N 42°20' E 007°46'0 0.5
2019-Feb-14 23:30N 42°20' E 007°46'0 0.5
2019-Feb-14 23:00N 42°20' E 007°46'0 0.6
2019-Feb-14 22:31N 42°20' E 007°45'0 0.6
2019-Feb-14 22:00N 42°20' E 007°45'0 0.6
2019-Feb-14 21:26N 42°20' E 007°44'0 0.6
2019-Feb-14 21:00N 42°20' E 007°44'1 1.0
2019-Feb-14 20:30N 42°21' E 007°45'2 3.1
2019-Feb-14 20:01N 42°21' E 007°47'0 0.7
2019-Feb-14 19:30N 42°21' E 007°46'0 0.6
2019-Feb-14 19:00N 42°21' E 007°46'1 1.7
2019-Feb-14 18:19N 42°22' E 007°45'0 0.7
2019-Feb-14 18:00N 42°22' E 007°45'0 0.4
2019-Feb-14 17:30N 42°22' E 007°45'0 0.3
2019-Feb-14 17:00N 42°22' E 007°45'0 0.4
2019-Feb-14 16:30N 42°22' E 007°45'1 1.1
2019-Feb-14 16:00N 42°21' E 007°46'1 1.0
2019-Feb-14 15:28N 42°21' E 007°45'0 0.2
2019-Feb-14 14:59N 42°21' E 007°46'0 0.8
2019-Feb-14 14:30N 42°20' E 007°45'1 1.0
2019-Feb-14 14:00N 42°21' E 007°45'0 0.1
2019-Feb-14 13:30N 42°21' E 007°45'1 1.3
2019-Feb-14 13:00N 42°20' E 007°45'0 0.1
2019-Feb-14 12:30N 42°20' E 007°45'0 0.3
2019-Feb-14 12:00N 42°20' E 007°45'0 0.1
2019-Feb-14 11:30N 42°20' E 007°45'0 0.0
2019-Feb-14 11:00N 42°20' E 007°45'0 0.5
2019-Feb-14 10:31N 42°20' E 007°46'0 0.5
2019-Feb-14 10:00N 42°21' E 007°46'0 0.5
2019-Feb-14 09:31N 42°21' E 007°46'0 0.6
2019-Feb-14 09:01N 42°21' E 007°46'1 1.2
2019-Feb-14 08:30N 42°21' E 007°45'0 0.6
2019-Feb-14 08:01N 42°20' E 007°45'0 0.7
2019-Feb-14 07:30N 42°20' E 007°45'0 0.7
2019-Feb-14 06:57N 42°21' E 007°45'0 0.5
2019-Feb-14 06:30N 42°21' E 007°45'0 0.6
2019-Feb-14 05:59N 42°21' E 007°45'0 0.3
2019-Feb-14 05:30N 42°21' E 007°45'0 0.4
2019-Feb-14 05:00N 42°21' E 007°45'1 1.9
2019-Feb-14 04:27N 42°21' E 007°44'0 0.1
2019-Feb-14 04:00N 42°21' E 007°44'0 0.1
2019-Feb-14 02:58N 42°21' E 007°44'0 0.1
2019-Feb-14 02:28N 42°21' E 007°44'0 0.1
2019-Feb-14 01:53N 42°21' E 007°44'0 0.2
2019-Feb-14 01:30N 42°21' E 007°44'0 0.2
2019-Feb-14 00:58N 42°21' E 007°44'0 0.2
2019-Feb-14 00:30N 42°21' E 007°44'0 0.3
2019-Feb-14 00:00N 42°21' E 007°44'0 0.3
2019-Feb-13 23:30N 42°21' E 007°44'0 0.3
2019-Feb-13 22:59N 42°21' E 007°44'0 0.3
2019-Feb-13 22:30N 42°21' E 007°44'0 0.5
2019-Feb-13 21:40N 42°20' E 007°45'0 0.4
2019-Feb-13 21:23N 42°20' E 007°45'0 0.4
2019-Feb-13 20:26N 42°20' E 007°45'0 0.2
2019-Feb-13 20:00N 42°20' E 007°45'0 0.3
2019-Feb-13 18:51N 42°20' E 007°46'0 0.2
2019-Feb-13 18:21N 42°20' E 007°46'0 0.1
2019-Feb-13 17:54N 42°20' E 007°46'0 0.1
2019-Feb-13 17:30N 42°20' E 007°46'0 0.1
2019-Feb-13 16:45N 42°20' E 007°46'1 1.8
2019-Feb-13 16:05N 42°21' E 007°45'0 0.2
2019-Feb-13 15:32N 42°21' E 007°45'0 0.3
2019-Feb-13 14:58N 42°21' E 007°45'1 0.1
2019-Feb-13 07:43N 42°22' E 007°45'0 1.0
2019-Feb-13 07:28N 42°21' E 007°45'0 0.1
2019-Feb-13 07:00N 42°21' E 007°45'0 0.1
2019-Feb-13 06:29N 42°21' E 007°45'1 1.0
2019-Feb-13 05:58N 42°21' E 007°45'3 3.9
2019-Feb-13 05:07N 42°23' E 007°42'0 4.1
2019-Feb-13 05:00N 42°24' E 007°42'10 4.4
2019-Feb-13 02:48N 42°31' E 007°33'2 4.7
2019-Feb-13 02:22N 42°32' E 007°31'6 4.7
2019-Feb-13 01:01N 42°37' E 007°25'0 4.6
2019-Feb-13 00:57N 42°37' E 007°25'11 4.5
2019-Feb-12 22:36N 42°45' E 007°16'1 4.8
2019-Feb-12 22:22N 42°46' E 007°15'3 4.6
2019-Feb-12 21:49N 42°48' E 007°12'1 4.6
2019-Feb-12 21:30N 42°49' E 007°11'2 4.6
2019-Feb-12 21:00N 42°51' E 007°09'2 4.7
2019-Feb-12 20:30N 42°53' E 007°07'2 4.7
2019-Feb-12 20:00N 42°54' E 007°05'2 4.8
2019-Feb-12 19:30N 42°56' E 007°03'2 4.7
2019-Feb-12 18:59N 42°58' E 007°00'2 4.7
2019-Feb-12 18:30N 42°60' E 006°58'2 4.9
2019-Feb-12 18:01N 43°01' E 006°56'2 4.8
2019-Feb-12 17:30N 43°03' E 006°54'2 4.8
2019-Feb-12 17:00N 43°05' E 006°51'3 5.2
2019-Feb-12 16:30N 43°07' E 006°49'3 5.4
2019-Feb-12 16:00N 43°09' E 006°47'1 2.2
2019-Feb-12 15:30N 43°09' E 006°48'0 0.6
2019-Feb-12 15:00N 43°10' E 006°48'0 0.3
2019-Feb-12 14:30N 43°10' E 006°48'0 0.1
2019-Feb-12 14:00N 43°10' E 006°48'0 0.2
2019-Feb-12 13:30N 43°10' E 006°48'0 0.2
2019-Feb-12 13:00N 43°10' E 006°48'1 2.2
2019-Feb-12 12:30N 43°09' E 006°47'1 1.4
2019-Feb-12 11:59N 43°10' E 006°48'0 0.3
2019-Feb-12 11:29N 43°10' E 006°48'0 0.7
2019-Feb-12 11:00N 43°10' E 006°48'0 0.9
2019-Feb-12 10:30N 43°09' E 006°49'2 4.1
2019-Feb-12 10:00N 43°10' E 006°46'6 1.6
2019-Feb-12 06:02N 43°06' E 006°38'111.1
2019-Feb-12 05:54N 43°06' E 006°40'411.3
2019-Feb-12 05:30N 43°05' E 006°46'511.1
2019-Feb-12 05:00N 43°05' E 006°54'4 7.7
2019-Feb-12 04:30N 43°04' E 006°59'0 0.2
2019-Feb-12 04:00N 43°05' E 006°59'0 0.3
2019-Feb-12 03:30N 43°04' E 006°59'0 0.0
2019-Feb-12 03:00N 43°04' E 006°59'0 0.1
2019-Feb-12 02:30N 43°05' E 006°59'0 0.0
2019-Feb-12 02:00N 43°05' E 006°59'0 0.0
2019-Feb-12 01:30N 43°05' E 006°59'0 0.0
2019-Feb-12 00:58N 43°05' E 006°59'0 0.1
2019-Feb-12 00:29N 43°04' E 006°59'0 0.1
2019-Feb-12 00:00N 43°04' E 006°59'0 0.1
2019-Feb-11 23:30N 43°04' E 006°59'0 0.0
2019-Feb-11 23:00N 43°04' E 006°59'0 0.1
2019-Feb-11 22:30N 43°04' E 006°59'0 0.2
2019-Feb-11 22:00N 43°05' E 006°59'0 0.1
2019-Feb-11 21:30N 43°04' E 006°59'0 0.2
2019-Feb-11 21:00N 43°04' E 006°59'0 0.0
2019-Feb-11 20:30N 43°04' E 006°59'0 0.0
2019-Feb-11 20:00N 43°04' E 006°59'0 0.0
2019-Feb-11 19:30N 43°04' E 006°59'0 0.1
2019-Feb-11 19:00N 43°04' E 006°59'1 1.2
2019-Feb-11 18:24N 43°04' E 006°59'1 2.7
2019-Feb-11 17:58N 43°05' E 006°59'0 0.6
2019-Feb-11 17:30N 43°05' E 006°59'0 0.4
2019-Feb-11 17:01N 43°05' E 006°60'0 0.3
2019-Feb-11 16:30N 43°05' E 006°59'0 0.4
2019-Feb-11 15:55N 43°04' E 006°59'0 0.3
2019-Feb-11 15:29N 43°05' E 006°59'0 0.1
2019-Feb-11 15:00N 43°05' E 006°59'0 0.1
2019-Feb-11 14:30N 43°05' E 006°59'0 0.3
2019-Feb-11 14:00N 43°04' E 006°59'0 0.4
2019-Feb-11 13:30N 43°04' E 006°60'0 0.4
2019-Feb-11 13:00N 43°04' E 006°59'1 2.9
2019-Feb-11 12:30N 43°05' E 006°58'4 5.9
2019-Feb-11 11:49N 43°08' E 006°53'2 6.1
2019-Feb-11 11:30N 43°09' E 006°51'3 6.3
2019-Feb-11 10:59N 43°11' E 006°48'3 5.9
2019-Feb-11 10:28N 43°13' E 006°44'2 0.9
2019-Feb-11 08:26N 43°14' E 006°42'1 1.4
2019-Feb-11 07:56N 43°13' E 006°43'4 8.2
2019-Feb-11 07:30N 43°11' E 006°47'2 3.5
2019-Feb-11 07:00N 43°10' E 006°49'1 1.1
2019-Feb-11 06:30N 43°10' E 006°48'1 1.3
2019-Feb-11 06:00N 43°09' E 006°47'0 0.1
2019-Feb-11 05:28N 43°09' E 006°47'0 0.7
2019-Feb-11 05:00N 43°09' E 006°48'0 0.7
2019-Feb-11 04:30N 43°10' E 006°48'0 0.6
2019-Feb-11 04:00N 43°09' E 006°47'0 0.7
2019-Feb-11 03:30N 43°10' E 006°48'0 0.7
2019-Feb-11 03:00N 43°10' E 006°48'0 0.7
2019-Feb-11 02:31N 43°09' E 006°48'1 1.3
2019-Feb-11 02:00N 43°10' E 006°48'0 0.3
2019-Feb-11 01:31N 43°10' E 006°48'1 1.2
2019-Feb-11 01:00N 43°10' E 006°48'0 0.7
2019-Feb-11 00:30N 43°10' E 006°48'0 0.5
2019-Feb-11 00:00N 43°10' E 006°48'0 0.7
2019-Feb-10 23:30N 43°10' E 006°48'1 1.1
2019-Feb-10 23:00N 43°10' E 006°48'0 0.4
2019-Feb-10 22:30N 43°10' E 006°48'1 1.0
2019-Feb-10 22:00N 43°10' E 006°49'0 0.3
2019-Feb-10 21:30N 43°11' E 006°49'1 2.2
2019-Feb-10 21:01N 43°10' E 006°48'1 1.8
2019-Feb-10 20:30N 43°10' E 006°49'1 2.7
2019-Feb-10 20:00N 43°11' E 006°51'1 2.5
2019-Feb-10 19:30N 43°12' E 006°52'1 2.3
2019-Feb-10 19:01N 43°13' E 006°52'1 1.6
2019-Feb-10 18:31N 43°13' E 006°53'1 2.5
2019-Feb-10 18:00N 43°12' E 006°52'1 2.4
2019-Feb-10 17:27N 43°11' E 006°51'1 1.9
2019-Feb-10 17:00N 43°11' E 006°50'1 2.0
2019-Feb-10 16:31N 43°10' E 006°49'1 1.7
2019-Feb-10 16:00N 43°10' E 006°48'0 0.0
2019-Feb-10 15:30N 43°10' E 006°48'0 0.2
2019-Feb-10 15:00N 43°10' E 006°48'0 0.0
2019-Feb-10 14:30N 43°10' E 006°48'0 0.2
2019-Feb-10 14:00N 43°10' E 006°48'0 0.2
2019-Feb-10 13:30N 43°10' E 006°48'0 0.7
2019-Feb-10 12:56N 43°10' E 006°49'0 0.6
2019-Feb-10 12:30N 43°10' E 006°49'0 0.5
2019-Feb-10 12:00N 43°10' E 006°49'1 1.2
2019-Feb-10 11:30N 43°09' E 006°48'0 0.3
2019-Feb-10 10:40N 43°09' E 006°48'1 3.2
2019-Feb-10 10:30N 43°10' E 006°48'0 0.8
2019-Feb-10 10:00N 43°09' E 006°48'1 1.0
2019-Feb-10 09:25N 43°10' E 006°48'0 0.1
2019-Feb-10 09:00N 43°10' E 006°48'1 1.0
2019-Feb-10 08:30N 43°10' E 006°48'1 1.6
2019-Feb-10 08:00N 43°10' E 006°49'1 2.9
2019-Feb-10 07:30N 43°09' E 006°47'0 0.4
2019-Feb-10 06:46N 43°09' E 006°47'0 1.3
2019-Feb-10 06:30N 43°09' E 006°47'0 1.0
2019-Feb-10 06:00N 43°09' E 006°48'0 0.5
2019-Feb-10 05:30N 43°09' E 006°48'1 1.3
2019-Feb-10 04:52N 43°10' E 006°47'1 2.0
2019-Feb-10 04:31N 43°09' E 006°47'1 1.3
2019-Feb-10 03:56N 43°10' E 006°48'1 2.6
2019-Feb-10 03:30N 43°09' E 006°48'1 1.6
2019-Feb-10 02:56N 43°10' E 006°48'0 0.4
2019-Feb-10 02:12N 43°10' E 006°48'0 1.2
2019-Feb-10 02:00N 43°10' E 006°49'0 0.5
2019-Feb-10 01:15N 43°10' E 006°49'1 2.8
2019-Feb-10 00:56N 43°09' E 006°49'1 1.4
2019-Feb-10 00:30N 43°09' E 006°48'0 0.3
2019-Feb-10 00:00N 43°09' E 006°48'0 0.3
2019-Feb-09 23:30N 43°09' E 006°48'0 0.4
2019-Feb-09 23:00N 43°10' E 006°48'0 0.2
2019-Feb-09 22:30N 43°10' E 006°48'0 0.4
2019-Feb-09 22:00N 43°10' E 006°48'0 0.4
2019-Feb-09 21:30N 43°10' E 006°48'0 0.9
2019-Feb-09 20:59N 43°10' E 006°48'0 0.9
2019-Feb-09 20:30N 43°10' E 006°48'1 1.7
2019-Feb-09 20:00N 43°10' E 006°49'0 0.9
2019-Feb-09 19:30N 43°10' E 006°49'1 1.0
2019-Feb-09 19:01N 43°10' E 006°49'2 3.8
2019-Feb-09 18:31N 43°09' E 006°47'3 5.6
2019-Feb-09 18:00N 43°09' E 006°43'2 4.2
2019-Feb-09 17:30N 43°09' E 006°40'3 4.3
2019-Feb-09 16:52N 43°08' E 006°37'4 5.4
2019-Feb-09 16:08N 43°06' E 006°31'4 5.2
2019-Feb-09 15:20N 43°05' E 006°26'0 1.1
2019-Feb-09 15:00N 43°05' E 006°27'1 0.2
2019-Feb-09 12:08N 43°05' E 006°27'11 2.6
2019-Feb-09 08:04N 43°09' E 006°41'110.4
2019-Feb-09 07:59N 43°09' E 006°42'510.9
2019-Feb-09 07:31N 43°11' E 006°49'2 4.4
2019-Feb-09 07:00N 43°12' E 006°52'1 1.1
2019-Feb-09 06:30N 43°12' E 006°52'0 0.3
2019-Feb-09 06:00N 43°12' E 006°52'0 0.3
2019-Feb-09 05:30N 43°12' E 006°52'1 3.0
2019-Feb-09 05:00N 43°12' E 006°54'1 2.6
2019-Feb-09 04:30N 43°12' E 006°53'0 0.5
2019-Feb-09 04:00N 43°13' E 006°52'1 2.8
2019-Feb-09 03:30N 43°12' E 006°54'1 2.2
2019-Feb-09 03:00N 43°13' E 006°53'0 1.0
2019-Feb-09 02:30N 43°13' E 006°52'1 2.8
2019-Feb-09 02:01N 43°12' E 006°54'1 1.6
2019-Feb-09 01:30N 43°13' E 006°53'1 1.9
2019-Feb-09 01:00N 43°13' E 006°52'0 0.1
2019-Feb-09 00:30N 43°13' E 006°52'0 0.6
2019-Feb-09 00:00N 43°13' E 006°52'1 2.5
2019-Feb-08 23:31N 43°13' E 006°53'1 1.9
2019-Feb-08 23:00N 43°12' E 006°54'1 2.8
2019-Feb-08 22:30N 43°13' E 006°53'0 0.9
2019-Feb-08 22:00N 43°14' E 006°52'1 2.7
2019-Feb-08 21:30N 43°13' E 006°54'0 0.2
2019-Feb-08 21:01N 43°13' E 006°54'1 2.0
2019-Feb-08 20:30N 43°13' E 006°53'1 2.2
2019-Feb-08 20:00N 43°12' E 006°51'1 3.0
2019-Feb-08 19:30N 43°13' E 006°50'0 0.3
2019-Feb-08 19:00N 43°13' E 006°49'0 0.3
2019-Feb-08 18:12N 43°13' E 006°49'40 1.9
2019-Feb-07 20:25N 43°06' E 005°55'1 2.3
2019-Feb-07 20:00N 43°06' E 005°54'0 0.0
2019-Feb-07 19:30N 43°06' E 005°54'0 0.0
2019-Feb-07 19:00N 43°06' E 005°54'0 0.0
2019-Feb-07 18:30N 43°06' E 005°54'0 0.0
2019-Feb-07 18:01N 43°06' E 005°54'0 0.0
2019-Feb-07 17:30N 43°06' E 005°54'0 0.0
2019-Feb-07 17:00N 43°06' E 005°54'0 0.0
2019-Feb-07 16:30N 43°06' E 005°54'0 0.0
2019-Feb-07 16:00N 43°06' E 005°54'0 0.0
2019-Feb-07 15:30N 43°06' E 005°54'0 0.0
2019-Feb-07 15:00N 43°06' E 005°54'0 0.0
2019-Feb-07 14:30N 43°06' E 005°54'0 0.0
2019-Feb-07 14:00N 43°06' E 005°54'0 0.0
2019-Feb-07 13:30N 43°06' E 005°54'0 0.0
2019-Feb-07 13:00N 43°06' E 005°54'0 0.0
2019-Feb-07 12:30N 43°06' E 005°54'0 0.0
2019-Feb-07 12:00N 43°06' E 005°54'0 0.0
2019-Feb-07 11:30N 43°06' E 005°54'0 0.0
2019-Feb-07 11:01N 43°06' E 005°54'0 0.0
2019-Feb-07 10:30N 43°06' E 005°54'0 0.0
2019-Feb-07 10:00N 43°06' E 005°54'0 0.0
2019-Feb-07 09:30N 43°06' E 005°54'0 0.0
2019-Feb-07 09:01N 43°06' E 005°54'0 0.0
2019-Feb-07 08:30N 43°06' E 005°54'0 0.0
2019-Feb-07 08:00N 43°06' E 005°54'0 0.0
2019-Feb-07 07:31N 43°06' E 005°54'  

Dump ship's entire track history